• Join FlightAware (Why Join?)
  • Login
  • US Flag 
09:21PM EDT


 

Airport Tracker/Info


-or-


 

Live Flight TrackerFlight Track Log ✈ SWA4204 ✈ 27-Sep-2013 ✈ KMHT - KMCO

Flight Track Log - Related Links

Times and Time Zones

All times are in EDT time to prevent confusion due to time zone crossing. See the SWA4204 flight status page for this flight to view local times or setup timezone preferences in your user account.

Time Position Orientation Groundspeed Altitude Reporting Facility
EDT Latitude Longitude Course Direction KTS MPH feet Rate Location/Type
07:09AM 42.9500 -71.4167 20° North 156 180 1,000  Level KA90
07:10AM 42.9833 -71.4000 20° North 176 203 2,500 2,640 Climbing KA90
07:10AM 42.9978 -71.3869 33° Northeast 230 265 4,000 2,760 Climbing Boston Center
07:11AM 43.0178 -71.2986 73° East 260 299 6,800 3,180 Climbing Boston Center
07:12AM 43.0417 -71.1986 72° East 272 313 10,400 2,760 Climbing Boston Center
07:13AM 43.0656 -71.0931 73° East 299 344 12,400 2,820 Climbing Boston Center
07:14AM 43.0617 -70.9539 92° East 327 376 16,100 2,820 Climbing Boston Center
07:15AM 42.9736 -70.9019 157° South 286 329 18,100 2,820 Climbing Boston Center
07:16AM 42.8575 -70.9475 196° South 334 384 21,700 3,120 Climbing Boston Center
07:17AM 42.7583 -71.0092 205° Southwest 369 425 24,300 2,100 Climbing Boston Center
07:18AM 42.6825 -71.1353 231° Southwest 384 442 26,000 1,680 Climbing Boston Center
07:19AM 42.6089 -71.2667 233° Southwest 411 473 27,800 1,800 Climbing Boston Center
07:20AM 42.5333 -71.4061 234° Southwest 446 513 29,700 1,920 Climbing Boston Center
07:21AM 42.4572 -71.5453 233° Southwest 458 527 31,700 1,800 Climbing Boston Center
07:22AM 42.3853 -71.6614 230° Southwest 463 533 33,400 1,560 Climbing Boston Center
07:23AM 42.3089 -71.7972 233° Southwest 463 533 34,900 1,440 Climbing Boston Center
07:24AM 42.2325 -71.9325 233° Southwest 463 533 36,300 1,260 Climbing Boston Center
07:25AM 42.1558 -72.0703 233° Southwest 463 533 37,500 840 Climbing Boston Center
07:26AM 42.0792 -72.2053 233° Southwest 463 533 38,000 240 Climbing Boston Center
07:27AM 42.0044 -72.3367 233° Southwest 463 533 38,000  Level Boston Center
07:28AM 41.9272 -72.4708 232° Southwest 463 533 38,000  Level Boston Center
07:29AM 41.8522 -72.6017 232° Southwest 458 527 38,000  Level Boston Center
07:30AM 41.7728 -72.7350 231° Southwest 460 529 38,000  Level Boston Center
07:31AM 41.6953 -72.8711 233° Southwest 465 535 38,000  Level Boston Center
07:32AM 41.6175 -73.0067 233° Southwest 465 535 38,000  Level Boston Center
07:33AM 41.5333 -73.1528 232° Southwest 465 535 38,000  Level Boston Center
07:34AM 41.4594 -73.2850 233° Southwest 457 526 38,000  Level Boston Center
07:35AM 41.3792 -73.4194 232° Southwest 457 526 38,000  Level Boston Center
07:37AM 41.2125 -73.7058 232° Southwest 457 526 38,000  Level New York Center
07:38AM 41.1344 -73.8344 231° Southwest 457 526 38,000  Level New York Center
07:39AM 41.0558 -73.9686 232° Southwest 457 526 38,000  Level New York Center
07:40AM 40.9772 -74.0994 232° Southwest 457 526 38,000  Level New York Center
07:41AM 40.8944 -74.2272 229° Southwest 457 526 38,000  Level New York Center
07:42AM 40.8156 -74.3575 231° Southwest 457 526 38,000  Level New York Center
07:43AM 40.7386 -74.4847 231° Southwest 457 526 38,000  Level New York Center
07:44AM 40.6572 -74.6172 231° Southwest 457 526 38,000  Level New York Center
07:45AM 40.5778 -74.7494 232° Southwest 462 532 38,000  Level New York Center
07:46AM 40.4944 -74.8700 228° Southwest 462 532 38,000  Level New York Center
07:47AM 40.4092 -74.9903 227° Southwest 462 532 38,000  Level New York Center
07:48AM 40.3211 -75.1131 227° Southwest 462 532 38,000  Level New York Center
07:49AM 40.2353 -75.2353 227° Southwest 457 526 38,000  Level New York Center
07:50AM 40.1514 -75.3578 228° Southwest 457 526 38,000  Level New York Center
07:51AM 40.0722 -75.4636 226° Southwest 457 526 38,000  Level New York Center
07:52AM 39.9861 -75.5825 227° Southwest 457 526 38,000  Level New York Center
07:53AM 39.9019 -75.7039 228° Southwest 452 520 38,000  Level New York Center
07:54AM 39.8258 -75.8283 231° Southwest 447 514 38,000  Level New York Center
07:55AM 39.7475 -75.9522 231° Southwest 447 514 38,000  Level New York Center
07:56AM 39.6669 -76.0731 229° Southwest 452 520 38,000  Level New York Center
07:59AM 39.4714 -76.3767 230° Southwest 460 529 38,000  Level Washington Center
08:00AM 39.3933 -76.5019 231° Southwest 455 524 38,000  Level Washington Center
08:01AM 39.3028 -76.6375 229° Southwest 455 524 38,000  Level Washington Center
08:02AM 39.2225 -76.7625 230° Southwest 455 524 38,000  Level Washington Center
08:03AM 39.1419 -76.8894 231° Southwest 455 524 38,000  Level Washington Center
08:04AM 39.0592 -77.0192 231° Southwest 455 524 38,000  Level Washington Center
08:05AM 38.9642 -77.1267 221° Southwest 461 531 38,000  Level Washington Center
08:06AM 38.8647 -77.2339 220° Southwest 466 536 38,000  Level Washington Center
08:07AM 38.7653 -77.3436 221° Southwest 466 536 38,000  Level Washington Center
08:08AM 38.6633 -77.4503 219° Southwest 471 542 38,000  Level Washington Center
08:09AM 38.5744 -77.5489 221° Southwest 471 542 38,000  Level Washington Center
08:10AM 38.4767 -77.6575 221° Southwest 471 542 38,000  Level Washington Center
08:11AM 38.3767 -77.7661 220° Southwest 471 542 38,000  Level Washington Center
08:12AM 38.2747 -77.8742 220° Southwest 471 542 38,000  Level Washington Center
08:13AM 38.1744 -77.9822 220° Southwest 471 542 38,000  Level Washington Center
08:14AM 38.0722 -78.0922 220° Southwest 466 536 38,000  Level Washington Center
08:15AM 37.9719 -78.1969 219° Southwest 466 536 38,000  Level Washington Center
08:16AM 37.8653 -78.2986 217° Southwest 476 548 38,000  Level Washington Center
08:17AM 37.7567 -78.4050 218° Southwest 488 562 38,000  Level Washington Center
08:18AM 37.6328 -78.5183 216° Southwest 501 577 38,000  Level Washington Center
08:19AM 37.5217 -78.6242 217° Southwest 501 577 38,000  Level Washington Center
08:20AM 37.4064 -78.7292 216° Southwest 507 583 38,000  Level Washington Center
08:21AM 37.2931 -78.8317 216° Southwest 507 583 38,000  Level Washington Center
08:22AM 37.1797 -78.9364 216° Southwest 507 583 38,000  Level Washington Center
08:23AM 37.0811 -79.0311 217° Southwest 507 583 38,000  Level Washington Center
08:24AM 36.9717 -79.1353 217° Southwest 507 583 38,000  Level Washington Center
08:25AM 36.8581 -79.2367 216° Southwest 507 583 38,000  Level Washington Center
08:26AM 36.7464 -79.3400 217° Southwest 507 583 38,000  Level Washington Center
08:27AM 36.6347 -79.4408 216° Southwest 507 583 38,000  Level Washington Center
08:28AM 36.5119 -79.5511 216° Southwest 507 583 38,000  Level Washington Center
08:29AM 36.4044 -79.6514 217° Southwest 500 575 38,000  Level Washington Center
08:30AM 36.2314 -79.8044 216° Southwest 486 559 38,000  Level Atlanta Center
08:31AM 36.1242 -79.9000 216° Southwest 486 559 38,000  Level Atlanta Center
08:32AM 35.9936 -79.9914 210° Southwest 491 565 38,000  Level Atlanta Center
08:33AM 35.8617 -80.0417 197° South 483 556 38,000  Level Atlanta Center
08:34AM 35.7297 -80.0864 195° South 494 568 38,000  Level Atlanta Center
08:35AM 35.5956 -80.1311 195° South 509 586 38,000  Level Atlanta Center
08:36AM 35.4614 -80.1758 195° South 509 586 38,000  Level Atlanta Center
08:37AM 35.3250 -80.2178 194° South 509 586 38,000  Level Atlanta Center
08:38AM 35.1950 -80.2619 196° South 503 579 38,000  Level Atlanta Center
08:40AM 34.9619 -80.3342 194° South 487 560 38,000  Level Jacksonville Center
08:41AM 34.8231 -80.3789 195° South 487 560 38,000  Level Jacksonville Center
08:42AM 34.7111 -80.4125 194° South 489 563 38,000  Level Jacksonville Center
08:43AM 34.5786 -80.4567 195° South 489 563 38,000  Level Jacksonville Center
08:44AM 34.4481 -80.4981 195° South 489 563 38,000  Level Jacksonville Center
08:45AM 34.3153 -80.5394 194° South 489 563 38,000  Level Jacksonville Center
08:46AM 34.1825 -80.5806 194° South 489 563 38,000  Level Jacksonville Center
08:47AM 34.0497 -80.6219 194° South 489 563 38,000  Level Jacksonville Center
08:48AM 33.9128 -80.6653 195° South 489 563 38,000  Level Jacksonville Center
08:49AM 33.7819 -80.7036 194° South 489 563 38,000  Level Jacksonville Center
08:50AM 33.6467 -80.7294 189° South 489 563 38,000  Level Jacksonville Center
08:51AM 33.5136 -80.7578 190° South 484 557 38,000  Level Jacksonville Center
08:52AM 33.3783 -80.7833 189° South 489 563 38,000  Level Jacksonville Center
08:53AM 33.2433 -80.8089 189° South 489 563 38,000  Level Jacksonville Center
08:54AM 33.1081 -80.8367 190° South 489 563 38,000  Level Jacksonville Center
08:55AM 32.9769 -80.8619 189° South 489 563 38,000  Level Jacksonville Center
08:56AM 32.8436 -80.8872 189° South 484 557 38,000  Level Jacksonville Center
08:57AM 32.7106 -80.9125 189° South 484 557 38,000  Level Jacksonville Center
08:58AM 32.5772 -80.9328 187° South 484 557 38,000  Level Jacksonville Center
08:59AM 32.4397 -80.9406 183° South 484 557 38,000  Level Jacksonville Center
09:00AM 32.3019 -80.9458 182° South 489 563 38,000  Level Jacksonville Center
09:01AM 32.1642 -80.9564 184° South 499 574 38,000  Level Jacksonville Center
09:02AM 32.0097 -80.9619 182° South 504 580 38,000  Level Jacksonville Center
09:03AM 31.8806 -80.9694 183° South 509 586 38,000  Level Jacksonville Center
09:04AM 31.7261 -80.9800 183° South 509 586 38,000  Level Jacksonville Center
09:05AM 31.5886 -80.9878 183° South 512 589 38,000  Level Jacksonville Center
09:06AM 31.4656 -80.9953 183° South 505 581 38,000  Level Jacksonville Center
09:07AM 31.3256 -81.0028 183° South 505 581 38,000  Level Jacksonville Center
09:08AM 31.1900 -81.0106 183° South 495 570 38,000  Level Jacksonville Center
09:09AM 31.0525 -81.0181 183° South 495 570 38,000  Level Jacksonville Center
09:10AM 30.9167 -81.0256 183° South 495 570 38,000 -480 Level Jacksonville Center
09:11AM 30.7833 -81.0331 183° South 495 570 37,100 -1,860 Descending Jacksonville Center
09:12AM 30.6478 -81.0406 183° South 490 564 34,300 -1,560 Descending Jacksonville Center
09:13AM 30.5078 -81.0481 183° South 496 571 34,000 -180 Descending Jacksonville Center
09:14AM 30.3681 -81.0556 183° South 496 571 34,000  Level Jacksonville Center
09:15AM 30.2303 -81.0533 179° South 496 571 34,000 -360 Level Jacksonville Center
09:16AM 30.0883 -81.0514 179° South 496 571 33,300 -1,980 Descending Jacksonville Center
09:17AM 29.9506 -81.0539 181° South 496 571 30,100 -2,940 Descending Jacksonville Center
09:18AM 29.8128 -81.0542 180° South 496 571 27,500 -2,580 Descending Jacksonville Center
09:19AM 29.6792 -81.0567 181° South 491 565 25,000 -2,520 Descending Jacksonville Center
09:20AM 29.5519 -81.0567 180° South 474 545 22,500 -2,400 Descending Jacksonville Center
09:21AM 29.4286 -81.0494 177° South 462 532 20,300 -2,220 Descending Jacksonville Center
09:22AM 29.3097 -81.0542 182° South 442 509 18,100 -2,280 Descending Jacksonville Center
09:23AM 29.1969 -81.0539 180° South 430 495 15,800 -1,920 Descending Jacksonville Center
09:24AM 29.0886 -81.0725 189° South 409 471 14,300 -1,260 Descending Jacksonville Center
09:25AM 28.9825 -81.0911 189° South 396 456 13,300 -1,200 Descending Jacksonville Center
09:26AM 28.8667 -81.1000 184° South 369 425 12,000 -1,140 Descending Orlando TRACON
09:27AM 28.7667 -81.1333 196° South 366 421 10,900 -720 Descending Orlando TRACON
09:28AM 28.6667 -81.1333 180° South 330 380 10,600 -360 Descending Orlando TRACON
09:29AM 28.5833 -81.1500 190° South 263 303 10,200 -780 Descending Orlando TRACON
09:30AM 28.5167 -81.1667 192° South 263 303 9,100 -1,020 Descending Orlando TRACON
09:31AM 28.4500 -81.1833 192° South 254 292 8,300 -1,200 Descending Orlando TRACON
09:32AM 28.3833 -81.1833 180° South 245 282 6,900 -1,320 Descending Orlando TRACON
09:33AM 28.3167 -81.1833 180° South 244 281 5,700 -1,500 Descending Orlando TRACON
09:34AM 28.2500 -81.1833 180° South 235 270 3,900 -1,320 Descending Orlando TRACON
09:35AM 28.2167 -81.2500 240° Southwest 222 255 3,000 -1,140 Descending Orlando TRACON
09:36AM 28.2667 -81.2833 330° Northwest 212 244 1,600 -720 Descending Orlando TRACON
09:37AM 28.3333 -81.2833 360° North 204 235 1,600 -300 Level Orlando TRACON
09:38AM 28.3667 -81.2833 360° North 130 150 1,000 -660 Descending Orlando TRACON
09:39AM 28.4000 -81.2833 360° North 128 147 400 -600 Descending Orlando TRACON
09:41AM 28.4167 -81.3000 336° Northwest  Level FlightAware Approximate
09:48AM 28.4294 -81.3090 336° Northwest  Level Estimated
09:49AM 28.4294 -81.3090 336° Northwest  Level Estimated
09:50AM 28.4294 -81.3090 336° Northwest  Level Estimated
09:51AM 28.4294 -81.3090 336° Northwest  Level Estimated